KPVW

Hale County Airport

Plainview, Texas, USA
KPVW 171135Z 1712/1812 19007KT P6SM BKN120
Issued Valid From Valid To
Dec-17 @ 11:35 UTC
(32 minutes ago)
Dec-17 @ 12:00 UTC
(7 minutes ago)
Dec-18 @ 12:00 UTC
(in 24 hours)
Dec-17 @ 12:00 to Dec-18 @ 12:00
KPVW 171135Z 1712/1812 19007KT P6SM BKN120
Wind Visibility Clouds
190° at 7 knots Greater than 6 miles
  • Broken at 12,000' AGL
KPVW 171135Z 1712/1812 19007KT P6SM BKN120
Issued Dec-17 @ 11:35 UTC
(32 minutes ago)
Valid From Dec-17 @ 12:00 UTC
(7 minutes ago)
Valid To Dec-18 @ 12:00 UTC
(in 24 hours)
Dec-17 @ 12:00 - Dec-18 @ 12:00
Wind Visibility
190° at 7 knots Greater than 6 miles
Clouds
  • Broken at 12,000' AGL